Time;durP1;ratioP1;P1;durP2;ratioP2;P2;SDS_P1;SDS_P2;PMS_P1;PMS_P2;Temp;Humidity;BMP_temperature;BMP_pressure;BME280_temperature;BME280_humidity;BME280_pressure;Samples;Min_cycle;Max_cycle;Signal;HPM_P1;HPM_P2
2022/02/05 00:03:11;;;;;;;41.30;31.90;;;;;;;;;;4811382;29;89001;-77
2022/02/05 00:13:43;;;;;;;34.33;30.08;;;;;;;;;;4824855;29;89279;-77
2022/02/05 00:43:15;;;;;;;67.72;30.73;;;;;;;;;;4810589;29;87016;-78
2022/02/05 00:45:45;;;;;;;40.92;30.98;;;;;;;;;;4810810;29;87746;-78
2022/02/05 00:48:13;;;;;;;40.85;30.13;;;;;;;;;;4810693;29;89143;-78
2022/02/05 00:50:46;;;;;;;37.13;30.50;;;;;;;;;;4810594;29;86801;-78
2022/02/05 00:53:38;;;;;;;39.90;30.25;;;;;;;;;;4811025;29;86881;-78
2022/02/05 00:58:31;;;;;;;39.10;30.98;;;;;;;;;;4809804;29;89140;-78
2022/02/05 01:00:58;;;;;;;41.60;32.17;;;;;;;;;;4824053;29;86938;-78
2022/02/05 01:03:28;;;;;;;36.45;32.53;;;;;;;;;;4824899;29;87536;-77
2022/02/05 01:05:55;;;;;;;43.83;32.35;;;;;;;;;;4823259;29;90003;-78
2022/02/05 01:08:25;;;;;;;47.00;34.08;;;;;;;;;;4824009;29;90993;-78
2022/02/05 01:10:53;;;;;;;43.17;31.45;;;;;;;;;;4810235;29;86988;-78
2022/02/05 01:13:20;;;;;;;40.50;34.20;;;;;;;;;;4825186;29;86841;-78
2022/02/05 01:16:01;;;;;;;37.00;31.38;;;;;;;;;;4824243;29;90889;-78
2022/02/05 01:18:29;;;;;;;41.00;33.30;;;;;;;;;;4810205;29;90998;-78
2022/02/05 01:23:52;;;;;;;39.92;32.53;;;;;;;;;;4810761;29;86143;-77
2022/02/05 01:28:56;;;;;;;39.55;32.72;;;;;;;;;;4810958;29;88819;-78
2022/02/05 01:31:31;;;;;;;37.95;31.02;;;;;;;;;;4823255;29;87871;-78
2022/02/05 01:50:52;;;;;;;36.53;31.90;;;;;;;;;;4809857;29;89530;-78
2022/02/05 01:58:38;;;;;;;38.42;32.40;;;;;;;;;;4822556;29;90136;-78
2022/02/05 02:11:55;;;;;;;49.17;37.63;;;;;;;;;;4824517;29;88546;-77
2022/02/05 02:30:34;;;;;;;46.97;41.45;;;;;;;;;;4812586;29;89591;-77
2022/02/05 02:33:13;;;;;;;47.00;41.83;;;;;;;;;;4825761;29;89620;-80
2022/02/05 02:35:45;;;;;;;44.40;36.70;;;;;;;;;;4825324;29;86940;-77
2022/02/05 02:38:16;;;;;;;59.15;47.72;;;;;;;;;;4825758;29;86959;-80
2022/02/05 02:40:55;;;;;;;65.13;47.53;;;;;;;;;;4795781;29;89065;-79
2022/02/05 02:43:26;;;;;;;60.53;47.85;;;;;;;;;;4825455;29;88100;-77
2022/02/05 02:45:53;;;;;;;58.65;48.13;;;;;;;;;;4825980;29;86769;-79
2022/02/05 02:48:21;;;;;;;60.38;47.67;;;;;;;;;;4812503;29;87018;-79
2022/02/05 02:59:01;;;;;;;35.08;29.77;;;;;;;;;;4823605;29;86922;-79
2022/02/05 03:01:30;;;;;;;33.75;30.15;;;;;;;;;;4825211;29;89297;-79
2022/02/05 03:03:57;;;;;;;35.20;31.05;;;;;;;;;;4826022;29;87416;-79
2022/02/05 03:06:24;;;;;;;39.70;30.05;;;;;;;;;;4810635;29;86867;-79
2022/02/05 03:08:51;;;;;;;32.08;28.45;;;;;;;;;;4826845;29;86204;-79
2022/02/05 03:11:23;;;;;;;39.10;30.92;;;;;;;;;;4811504;29;89518;-79
2022/02/05 03:13:50;;;;;;;39.65;31.13;;;;;;;;;;4825561;29;89093;-79
2022/02/05 03:16:25;;;;;;;34.72;30.90;;;;;;;;;;4825652;29;87816;-79
2022/02/05 03:21:25;;;;;;;35.40;30.95;;;;;;;;;;4824784;29;89586;-79
2022/02/05 03:23:52;;;;;;;35.15;29.95;;;;;;;;;;4825780;29;89843;-79
2022/02/05 03:26:19;;;;;;;35.35;30.92;;;;;;;;;;4825895;29;86940;-79
2022/02/05 03:28:46;;;;;;;40.67;31.15;;;;;;;;;;4825441;29;86991;-79
2022/02/05 03:31:13;;;;;;;38.58;29.90;;;;;;;;;;4825719;29;89146;-79
2022/02/05 03:33:40;;;;;;;36.95;29.02;;;;;;;;;;4811800;29;89355;-79
2022/02/05 03:36:07;;;;;;;36.45;30.52;;;;;;;;;;4811852;29;86893;-79
2022/02/05 03:38:34;;;;;;;33.15;29.55;;;;;;;;;;4811689;29;86967;-79
2022/02/05 03:41:01;;;;;;;36.95;29.80;;;;;;;;;;4825215;29;90143;-79
2022/02/05 03:43:28;;;;;;;43.85;30.75;;;;;;;;;;4811345;29;90078;-79
2022/02/05 03:45:55;;;;;;;36.78;30.35;;;;;;;;;;4811557;29;87452;-79
2022/02/05 03:48:22;;;;;;;43.75;33.95;;;;;;;;;;4825683;29;87058;-79
2022/02/05 03:50:49;;;;;;;45.88;32.85;;;;;;;;;;4824941;29;89684;-78
2022/02/05 03:53:17;;;;;;;39.60;31.95;;;;;;;;;;4810200;29;89150;-79
2022/02/05 03:55:47;;;;;;;36.28;30.65;;;;;;;;;;4810992;29;86794;-79
2022/02/05 03:58:14;;;;;;;33.08;29.17;;;;;;;;;;4811291;29;86267;-79
2022/02/05 04:00:41;;;;;;;32.05;28.60;;;;;;;;;;4824755;29;89248;-79
2022/02/05 04:03:08;;;;;;;32.10;28.75;;;;;;;;;;4825443;29;88109;-79
2022/02/05 04:05:35;;;;;;;32.97;29.45;;;;;;;;;;4824853;29;88345;-80
2022/02/05 04:08:06;;;;;;;32.42;29.10;;;;;;;;;;4825302;29;87035;-79
2022/02/05 04:10:42;;;;;;;36.10;30.50;;;;;;;;;;4824865;29;88851;-79
2022/02/05 04:16:10;;;;;;;32.75;29.25;;;;;;;;;;4823081;29;86942;-79
2022/02/05 04:18:37;;;;;;;34.83;30.13;;;;;;;;;;4824082;29;87011;-79
2022/02/05 04:21:04;;;;;;;40.42;28.98;;;;;;;;;;4825058;29;89446;-78
2022/02/05 04:23:32;;;;;;;33.70;29.77;;;;;;;;;;4824887;29;89339;-81
2022/02/05 04:25:58;;;;;;;33.35;29.40;;;;;;;;;;4811144;29;86908;-79
2022/02/05 04:28:25;;;;;;;37.72;30.88;;;;;;;;;;4810532;29;87007;-79
2022/02/05 04:30:53;;;;;;;32.97;29.05;;;;;;;;;;4824453;29;89959;-79
2022/02/05 04:33:19;;;;;;;32.63;29.15;;;;;;;;;;4823680;29;90122;-79
2022/02/05 04:35:46;;;;;;;36.40;29.77;;;;;;;;;;4825053;29;86954;-79
2022/02/05 04:38:14;;;;;;;33.28;29.67;;;;;;;;;;4825357;29;88066;-79
2022/02/05 04:40:54;;;;;;;35.10;31.33;;;;;;;;;;4824524;29;89083;-79
2022/02/05 04:49:16;;;;;;;44.30;31.15;;;;;;;;;;4823050;29;86191;-79
2022/02/05 05:04:41;;;;;;;36.78;33.03;;;;;;;;;;4823169;29;89154;-79
2022/02/05 05:20:38;;;;;;;41.03;33.35;;;;;;;;;;4810398;29;86896;-80
2022/02/05 05:23:06;;;;;;;38.42;34.28;;;;;;;;;;4823182;29;90100;-79
2022/02/05 05:25:33;;;;;;;38.92;32.70;;;;;;;;;;4824258;29;89992;-80
2022/02/05 05:28:01;;;;;;;42.63;34.55;;;;;;;;;;4823609;29;87644;-79
2022/02/05 05:30:28;;;;;;;37.55;33.10;;;;;;;;;;4824479;29;86926;-80
2022/02/05 05:32:55;;;;;;;44.08;34.60;;;;;;;;;;4824005;29;89073;-80
2022/02/05 05:35:22;;;;;;;35.40;31.65;;;;;;;;;;4824005;29;90570;-80
2022/02/05 05:37:50;;;;;;;42.50;34.15;;;;;;;;;;4824267;29;87033;-80
2022/02/05 05:40:17;;;;;;;41.05;36.33;;;;;;;;;;4824550;29;86312;-79
2022/02/05 05:42:49;;;;;;;44.13;34.05;;;;;;;;;;4823878;29;91395;-80
2022/02/05 05:48:11;;;;;;;40.95;33.13;;;;;;;;;;4812786;29;87897;-80
2022/02/05 05:53:10;;;;;;;39.70;32.83;;;;;;;;;;4845804;29;87243;-80
2022/02/05 05:55:41;;;;;;;36.25;31.17;;;;;;;;;;4845411;29;88753;-80
2022/02/05 05:58:08;;;;;;;42.45;32.17;;;;;;;;;;4845184;29;86961;-79
2022/02/05 06:00:35;;;;;;;38.67;30.35;;;;;;;;;;4829514;29;86977;-78
2022/02/05 06:03:04;;;;;;;38.88;34.03;;;;;;;;;;4831512;29;89563;-78
2022/02/05 06:05:30;;;;;;;39.72;32.80;;;;;;;;;;4831794;29;89066;-79
2022/02/05 06:08:00;;;;;;;40.08;31.88;;;;;;;;;;4844899;29;87004;-78
2022/02/05 06:10:27;;;;;;;37.00;31.90;;;;;;;;;;4831644;29;86927;-79
2022/02/05 06:12:54;;;;;;;35.67;31.80;;;;;;;;;;4844587;29;90112;-78
2022/02/05 06:15:22;;;;;;;42.00;32.30;;;;;;;;;;4845539;29;90020;-78
2022/02/05 06:17:51;;;;;;;40.85;30.05;;;;;;;;;;4845236;29;87484;-78
2022/02/05 06:20:19;;;;;;;42.53;31.02;;;;;;;;;;4831382;29;87013;-78
2022/02/05 06:22:47;;;;;;;43.40;33.40;;;;;;;;;;4830948;29;88363;-78
2022/02/05 06:25:14;;;;;;;37.65;32.40;;;;;;;;;;4831029;29;88903;-79
2022/02/05 06:27:41;;;;;;;39.40;31.88;;;;;;;;;;4845048;29;87022;-78
2022/02/05 06:30:08;;;;;;;38.53;30.17;;;;;;;;;;4831118;29;86142;-78
2022/02/05 06:32:35;;;;;;;36.58;30.65;;;;;;;;;;4831060;29;88792;-78
2022/02/05 06:35:03;;;;;;;34.67;31.08;;;;;;;;;;4844779;29;89021;-78
2022/02/05 06:37:29;;;;;;;36.10;32.28;;;;;;;;;;4844840;29;87831;-81
2022/02/05 06:39:57;;;;;;;38.95;31.98;;;;;;;;;;4844121;29;88097;-78
2022/02/05 06:42:24;;;;;;;39.08;31.73;;;;;;;;;;4812477;29;90805;-80
2022/02/05 06:44:51;;;;;;;42.50;35.10;;;;;;;;;;4810703;29;89880;-81
2022/02/05 06:47:18;;;;;;;42.60;33.72;;;;;;;;;;4812396;29;86781;-78
2022/02/05 06:49:45;;;;;;;38.58;32.65;;;;;;;;;;4811451;29;86973;-80
2022/02/05 06:52:12;;;;;;;40.45;32.67;;;;;;;;;;4826094;29;89600;-80
2022/02/05 06:54:39;;;;;;;36.75;32.85;;;;;;;;;;4812596;29;88304;-80
2022/02/05 06:57:06;;;;;;;40.13;33.58;;;;;;;;;;4809928;29;86858;-80
2022/02/05 06:59:33;;;;;;;41.88;33.95;;;;;;;;;;4810274;29;87011;-80
2022/02/05 07:02:00;;;;;;;38.28;34.10;;;;;;;;;;4825125;29;90346;-80
2022/02/05 07:04:28;;;;;;;36.28;32.53;;;;;;;;;;4826474;29;88581;-81
2022/02/05 07:06:57;;;;;;;36.53;32.65;;;;;;;;;;4810740;29;87058;-79
2022/02/05 07:09:27;;;;;;;37.08;32.15;;;;;;;;;;4826109;29;86896;-80
2022/02/05 07:11:57;;;;;;;36.45;32.53;;;;;;;;;;4810895;29;90290;-80
2022/02/05 07:14:28;;;;;;;36.65;32.72;;;;;;;;;;4825568;29;90461;-80
2022/02/05 07:17:20;;;;;;;38.58;33.58;;;;;;;;;;4825724;29;86839;-80
2022/02/05 07:22:42;;;;;;;36.55;31.48;;;;;;;;;;4810932;29;88942;-81
2022/02/05 07:30:28;;;;;;;44.80;33.83;;;;;;;;;;4810621;29;86976;-79
2022/02/05 07:32:55;;;;;;;37.25;33.15;;;;;;;;;;4825807;29;90221;-79
2022/02/05 07:35:22;;;;;;;42.13;35.05;;;;;;;;;;4811484;29;89210;-80
2022/02/05 07:37:53;;;;;;;40.17;31.85;;;;;;;;;;4825815;29;86983;-80
2022/02/05 07:40:20;;;;;;;34.72;31.25;;;;;;;;;;4825417;29;86828;-80
2022/02/05 07:42:47;;;;;;;39.50;34.30;;;;;;;;;;4810541;29;88789;-79
2022/02/05 07:45:15;;;;;;;37.25;33.03;;;;;;;;;;4810014;29;91487;-78
2022/02/05 07:47:42;;;;;;;43.53;34.85;;;;;;;;;;4825849;29;87020;-79
2022/02/05 07:50:09;;;;;;;37.83;33.83;;;;;;;;;;4825452;29;86993;-80
2022/02/05 07:52:37;;;;;;;41.58;31.63;;;;;;;;;;4824961;29;90126;-80
2022/02/05 07:55:04;;;;;;;41.85;33.60;;;;;;;;;;4811401;29;90629;-81
2022/02/05 07:57:31;;;;;;;40.63;33.25;;;;;;;;;;4809698;29;86939;-80
2022/02/05 07:59:58;;;;;;;36.90;32.50;;;;;;;;;;4809904;29;86987;-80
2022/02/05 08:02:25;;;;;;;35.50;31.65;;;;;;;;;;4841609;29;89136;-80
2022/02/05 08:04:52;;;;;;;38.85;34.47;;;;;;;;;;4840218;29;88345;-80
2022/02/05 08:07:19;;;;;;;41.63;33.55;;;;;;;;;;4845609;29;88076;-79
2022/02/05 08:09:57;;;;;;;40.72;34.95;;;;;;;;;;4844144;29;86227;-79
2022/02/05 08:12:25;;;;;;;42.15;35.33;;;;;;;;;;4842886;29;89247;-80
2022/02/05 08:14:54;;;;;;;50.78;38.45;;;;;;;;;;4846715;29;89611;-76
2022/02/05 08:17:31;;;;;;;44.85;36.55;;;;;;;;;;4845180;29;88322;-82
2022/02/05 08:19:58;;;;;;;42.95;36.03;;;;;;;;;;4846247;29;86973;-80
2022/02/05 08:22:26;;;;;;;41.53;34.70;;;;;;;;;;4846145;29;88136;-80
2022/02/05 08:24:53;;;;;;;45.42;35.28;;;;;;;;;;4846310;29;89230;-80
2022/02/05 08:27:20;;;;;;;46.50;35.97;;;;;;;;;;4848089;29;86889;-81
2022/02/05 08:29:54;;;;;;;40.65;35.28;;;;;;;;;;4846265;29;87084;-80
2022/02/05 08:32:25;;;;;;;40.85;35.42;;;;;;;;;;4846867;29;89824;-80
2022/02/05 08:34:52;;;;;;;39.90;33.30;;;;;;;;;;4846552;29;88761;-80
2022/02/05 08:37:19;;;;;;;39.90;35.65;;;;;;;;;;4846890;29;86880;-80
2022/02/05 08:39:46;;;;;;;42.40;35.05;;;;;;;;;;4847898;29;86982;-80
2022/02/05 08:42:13;;;;;;;39.17;34.67;;;;;;;;;;4845898;29;90269;-80
2022/02/05 08:44:40;;;;;;;46.60;36.50;;;;;;;;;;4846557;29;90292;-80
2022/02/05 08:47:08;;;;;;;42.22;36.10;;;;;;;;;;4847411;29;86801;-80
2022/02/05 08:49:35;;;;;;;39.88;34.38;;;;;;;;;;4846799;29;86974;-80
2022/02/05 08:52:07;;;;;;;42.83;35.92;;;;;;;;;;4829887;29;88237;-80
2022/02/05 08:54:35;;;;;;;47.50;38.28;;;;;;;;;;4809638;29;89237;-80
2022/02/05 08:57:03;;;;;;;48.13;39.92;;;;;;;;;;4808991;29;86999;-79
2022/02/05 08:59:41;;;;;;;42.83;38.03;;;;;;;;;;4809155;29;86247;-79
2022/02/05 09:02:18;;;;;;;43.33;37.28;;;;;;;;;;4822879;29;89101;-79
2022/02/05 09:07:12;;;;;;;41.60;36.00;;;;;;;;;;4824063;29;87869;-79
2022/02/05 09:09:59;;;;;;;40.70;35.55;;;;;;;;;;4809386;29;87159;-80
2022/02/05 09:15:06;;;;;;;41.97;34.33;;;;;;;;;;4822893;29;89462;-80
2022/02/05 09:17:34;;;;;;;39.55;35.28;;;;;;;;;;4824339;29;86906;-80
2022/02/05 09:20:03;;;;;;;42.33;35.80;;;;;;;;;;4808694;29;86869;-79
2022/02/05 09:22:31;;;;;;;38.65;34.25;;;;;;;;;;4823934;29;89938;-79
2022/02/05 09:24:58;;;;;;;40.45;35.13;;;;;;;;;;4824144;29;86569;-80
2022/02/05 09:27:34;;;;;;;39.30;34.75;;;;;;;;;;4811068;29;86868;-80
2022/02/05 09:30:04;;;;;;;47.05;35.15;;;;;;;;;;4796152;29;88349;-80
2022/02/05 09:32:31;;;;;;;44.00;36.38;;;;;;;;;;4812587;29;88693;-80
2022/02/05 09:34:58;;;;;;;46.83;39.63;;;;;;;;;;4812521;29;90021;-80
2022/02/05 09:37:27;;;;;;;46.22;37.72;;;;;;;;;;4828004;29;86761;-80
2022/02/05 09:39:54;;;;;;;42.53;37.95;;;;;;;;;;4827380;29;87052;-80
2022/02/05 09:42:21;;;;;;;46.65;37.67;;;;;;;;;;4809868;29;89809;-80
2022/02/05 09:44:49;;;;;;;43.03;37.50;;;;;;;;;;4824177;29;89536;-80
2022/02/05 09:47:21;;;;;;;44.33;39.30;;;;;;;;;;4808848;29;86814;-80
2022/02/05 09:49:50;;;;;;;49.33;38.85;;;;;;;;;;4809396;29;86299;-80
2022/02/05 09:52:25;;;;;;;46.55;36.90;;;;;;;;;;4823285;29;89273;-79
2022/02/05 09:54:52;;;;;;;41.33;36.60;;;;;;;;;;4808001;29;90590;-79
2022/02/05 09:57:20;;;;;;;43.03;37.30;;;;;;;;;;4809201;29;87889;-79
2022/02/05 09:59:54;;;;;;;44.72;37.45;;;;;;;;;;4807734;29;87083;-80
2022/02/05 10:02:30;;;;;;;39.22;33.92;;;;;;;;;;4820685;29;91381;-79
2022/02/05 10:05:10;;;;;;;41.67;36.50;;;;;;;;;;4809752;29;88072;-79
2022/02/05 10:07:54;;;;;;;48.15;39.60;;;;;;;;;;4821407;29;86921;-79
2022/02/05 10:10:21;;;;;;;48.97;40.50;;;;;;;;;;4809622;29;86970;-80
2022/02/05 10:13:16;;;;;;;42.92;37.00;;;;;;;;;;4809522;29;89595;-79
2022/02/05 10:15:47;;;;;;;41.65;33.60;;;;;;;;;;4823933;29;89104;-79
2022/02/05 10:18:25;;;;;;;44.25;39.45;;;;;;;;;;4823545;29;87196;-79
2022/02/05 10:20:54;;;;;;;43.00;38.30;;;;;;;;;;4808491;29;86882;-79
2022/02/05 10:23:21;;;;;;;45.65;36.05;;;;;;;;;;4807806;29;90259;-78
2022/02/05 10:25:50;;;;;;;44.47;39.60;;;;;;;;;;4823349;29;90480;-80
2022/02/05 10:28:17;;;;;;;39.78;34.85;;;;;;;;;;4807830;29;86825;-80
2022/02/05 10:30:51;;;;;;;41.55;36.97;;;;;;;;;;4823915;29;87822;-78
2022/02/05 10:33:42;;;;;;;40.42;36.10;;;;;;;;;;4811276;29;89238;-78
2022/02/05 10:36:24;;;;;;;39.72;35.03;;;;;;;;;;4810940;29;87758;-79
2022/02/05 10:39:10;;;;;;;41.80;37.10;;;;;;;;;;4824750;29;87011;-79
2022/02/05 10:44:27;;;;;;;42.35;37.15;;;;;;;;;;4812373;29;87794;-79
2022/02/05 10:46:58;;;;;;;40.05;34.92;;;;;;;;;;4825564;29;89638;-79
2022/02/05 10:49:50;;;;;;;42.83;37.38;;;;;;;;;;4810505;29;87905;-79
2022/02/05 10:52:35;;;;;;;45.03;39.15;;;;;;;;;;4811103;29;86914;-79
2022/02/05 10:57:39;;;;;;;46.50;38.85;;;;;;;;;;4825869;29;87911;-79
2022/02/05 11:05:41;;;;;;;53.13;42.55;;;;;;;;;;4811015;29;89070;-80
2022/02/05 11:08:10;;;;;;;51.78;43.03;;;;;;;;;;4810963;29;87142;-80
2022/02/05 11:16:05;;;;;;;55.97;45.25;;;;;;;;;;4825599;29;89185;-80
2022/02/05 11:21:15;;;;;;;67.88;49.35;;;;;;;;;;4812086;29;86826;-77
2022/02/05 11:23:46;;;;;;;84.47;52.08;;;;;;;;;;4811514;29;87087;-80
2022/02/05 11:26:14;;;;;;;69.57;55.28;;;;;;;;;;4825730;29;89265;-80
2022/02/05 11:28:42;;;;;;;60.80;52.88;;;;;;;;;;4811337;29;89450;-79
2022/02/05 11:31:30;;;;;;;65.70;51.67;;;;;;;;;;4825445;29;86859;-79
2022/02/05 11:34:21;;;;;;;65.80;54.53;;;;;;;;;;4811739;29;86323;-79
2022/02/05 11:37:04;;;;;;;65.28;54.72;;;;;;;;;;4810883;29;89457;-79
2022/02/05 11:39:46;;;;;;;62.42;54.78;;;;;;;;;;4810543;29;88276;-79
2022/02/05 11:42:29;;;;;;;65.60;54.45;;;;;;;;;;4824730;29;87928;-80
2022/02/05 11:45:02;;;;;;;68.22;51.95;;;;;;;;;;4810843;29;86890;-79
2022/02/05 11:47:30;;;;;;;61.75;50.90;;;;;;;;;;4809748;29;89131;-79
2022/02/05 11:49:57;;;;;;;60.25;50.55;;;;;;;;;;4810259;29;89893;-82
2022/02/05 11:52:36;;;;;;;68.78;53.83;;;;;;;;;;4811248;29;86889;-79
2022/02/05 11:55:04;;;;;;;70.07;56.75;;;;;;;;;;4812147;29;86786;-80
2022/02/05 11:57:46;;;;;;;79.20;58.63;;;;;;;;;;4810936;29;89608;-80
2022/02/05 12:00:20;;;;;;;66.60;54.80;;;;;;;;;;4811071;29;89791;-79
2022/02/05 12:03:10;;;;;;;67.55;55.85;;;;;;;;;;4810150;29;86942;-79
2022/02/05 12:05:48;;;;;;;72.47;53.38;;;;;;;;;;4822728;29;86982;-79
2022/02/05 12:08:14;;;;;;;74.05;54.10;;;;;;;;;;4808983;29;89922;-80
2022/02/05 12:10:50;;;;;;;70.95;57.00;;;;;;;;;;4811118;29;88933;-80
2022/02/05 12:13:23;;;;;;;67.93;54.40;;;;;;;;;;4825168;29;86831;-81
2022/02/05 12:15:59;;;;;;;68.50;53.88;;;;;;;;;;4810200;29;87013;-80
2022/02/05 12:18:29;;;;;;;72.03;57.15;;;;;;;;;;4811304;29;89366;-79
2022/02/05 12:26:18;;;;;;;73.45;53.85;;;;;;;;;;4825469;29;86281;-80
2022/02/05 12:28:47;;;;;;;63.53;53.00;;;;;;;;;;4835106;29;88210;-81
2022/02/05 12:31:17;;;;;;;78.50;55.33;;;;;;;;;;4834313;29;89556;-80
2022/02/05 12:34:01;;;;;;;81.18;56.33;;;;;;;;;;4829145;29;87863;-76
2022/02/05 12:36:35;;;;;;;72.78;53.85;;;;;;;;;;4839042;29;87034;-78
2022/02/05 12:39:04;;;;;;;76.23;55.40;;;;;;;;;;4833584;29;88934;-78
2022/02/05 12:41:31;;;;;;;69.90;52.40;;;;;;;;;;4825613;29;87302;-77
2022/02/05 12:44:01;;;;;;;89.15;65.57;;;;;;;;;;4833747;29;87241;-78
2022/02/05 12:46:36;;;;;;;91.60;60.90;;;;;;;;;;4821803;29;86872;-79
2022/02/05 12:49:08;;;;;;;74.93;58.53;;;;;;;;;;4829459;29;89425;-79
2022/02/05 12:51:41;;;;;;;76.05;55.67;;;;;;;;;;4843330;29;89224;-77
2022/02/05 12:54:11;;;;;;;64.22;50.45;;;;;;;;;;4827458;29;86831;-78
2022/02/05 12:56:40;;;;;;;71.40;52.15;;;;;;;;;;4843497;29;86853;-77
2022/02/05 12:59:12;;;;;;;66.85;49.17;;;;;;;;;;4827343;29;90160;-78
2022/02/05 13:02:03;;;;;;;70.45;51.47;;;;;;;;;;4842850;29;88851;-78
2022/02/05 13:04:36;;;;;;;75.22;54.72;;;;;;;;;;4826082;29;87010;-78
2022/02/05 13:07:09;;;;;;;66.65;48.72;;;;;;;;;;4828162;29;86992;-78
2022/02/05 13:09:47;;;;;;;58.38;46.30;;;;;;;;;;4828862;29;87035;-79
2022/02/05 13:12:17;;;;;;;61.95;40.80;;;;;;;;;;4827815;29;89102;-79
2022/02/05 13:14:54;;;;;;;57.75;44.92;;;;;;;;;;4828446;29;87449;-78
2022/02/05 13:38:54;;;;;;;57.85;43.17;;;;;;;;;;4829006;29;86827;-78
2022/02/05 13:44:19;;;;;;;59.55;44.20;;;;;;;;;;4842420;29;89053;-78
2022/02/05 13:47:11;;;;;;;64.55;46.28;;;;;;;;;;4828372;29;86835;-78
2022/02/05 13:49:38;;;;;;;54.17;44.05;;;;;;;;;;4811923;29;86997;-78
2022/02/05 13:52:11;;;;;;;59.88;44.75;;;;;;;;;;4827897;29;90317;-78
2022/02/05 13:54:43;;;;;;;59.70;44.15;;;;;;;;;;4842587;29;90321;-78
2022/02/05 13:57:11;;;;;;;54.90;42.40;;;;;;;;;;4842360;29;87318;-78
2022/02/05 13:59:38;;;;;;;59.83;43.08;;;;;;;;;;4826378;29;87005;-78
2022/02/05 14:02:12;;;;;;;58.80;43.67;;;;;;;;;;4828192;29;89865;-78
2022/02/05 14:04:39;;;;;;;;;;;;;;;;;;4827374;29;89459;-78
2022/02/05 14:07:06;;;;;;;55.55;40.85;;;;;;;;;;4832070;29;86779;-78
2022/02/05 14:09:36;;;;;;;55.60;42.72;;;;;;;;;;4845997;29;86185;-78
2022/02/05 14:12:20;;;;;;;54.42;41.10;;;;;;;;;;4830153;29;90175;-78
2022/02/05 14:15:03;;;;;;;57.45;42.55;;;;;;;;;;4829700;29;88452;-78
2022/02/05 14:17:31;;;;;;;50.55;39.80;;;;;;;;;;4831011;29;87821;-77
2022/02/05 14:20:05;;;;;;;55.45;41.72;;;;;;;;;;4831193;29;86953;-78
2022/02/05 14:22:36;;;;;;;53.55;39.05;;;;;;;;;;4830074;29;87520;-79
2022/02/05 14:25:15;;;;;;;48.08;39.22;;;;;;;;;;4845056;29;89258;-79
2022/02/05 14:28:28;;;;;;;58.20;45.85;;;;;;;;;;4829828;29;87404;-79
2022/02/05 14:31:05;;;;;;;58.88;42.28;;;;;;;;;;4810380;29;86842;-78
2022/02/05 14:34:06;;;;;;;50.50;38.60;;;;;;;;;;4829880;29;89115;-78
2022/02/05 14:40:16;;;;;;;49.55;39.03;;;;;;;;;;4829134;29;88096;-78
2022/02/05 14:42:21;;;;;;;49.55;37.00;;;;;;;;;;4829708;29;87419;-78
2022/02/05 14:44:48;;;;;;;49.17;38.35;;;;;;;;;;4844417;29;91669;-78
2022/02/05 14:47:16;;;;;;;52.50;39.33;;;;;;;;;;4830806;29;89910;-77
2022/02/05 14:49:43;;;;;;;54.10;41.80;;;;;;;;;;4829697;29;86927;-78
2022/02/05 14:52:14;;;;;;;58.17;40.65;;;;;;;;;;4830015;29;86938;-79
2022/02/05 14:54:42;;;;;;;48.15;38.75;;;;;;;;;;4844696;29;87571;-79
2022/02/05 14:57:10;;;;;;;54.08;37.90;;;;;;;;;;4829435;29;88399;-78
2022/02/05 14:59:38;;;;;;;50.10;37.72;;;;;;;;;;4828464;29;87283;-78
2022/02/05 15:02:06;;;;;;;49.03;37.30;;;;;;;;;;4830206;29;86123;-78
2022/02/05 15:04:33;;;;;;;50.42;38.33;;;;;;;;;;4828897;29;88889;-78
2022/02/05 15:07:00;;;;;;;56.58;39.65;;;;;;;;;;4844874;29;88804;-78
2022/02/05 15:09:27;;;;;;;53.72;40.53;;;;;;;;;;4844028;29;87826;-79
2022/02/05 15:11:55;;;;;;;72.80;56.70;;;;;;;;;;4830784;29;86919;-79
2022/02/05 15:14:22;;;;;;;60.63;46.45;;;;;;;;;;4844704;29;90303;-79
2022/02/05 15:16:49;;;;;;;53.22;41.95;;;;;;;;;;4843930;29;89020;-78
2022/02/05 15:19:16;;;;;;;60.00;46.33;;;;;;;;;;4830744;29;86974;-78
2022/02/05 15:21:43;;;;;;;60.13;41.53;;;;;;;;;;4844173;29;87243;-78
2022/02/05 15:24:10;;;;;;;71.03;41.58;;;;;;;;;;4830323;29;88546;-78
2022/02/05 15:26:37;;;;;;;57.50;44.35;;;;;;;;;;4830036;29;89247;-79
2022/02/05 15:29:09;;;;;;;52.65;40.08;;;;;;;;;;4844489;29;87070;-78
2022/02/05 15:31:38;;;;;;;61.60;44.95;;;;;;;;;;4844406;29;86892;-78
2022/02/05 15:34:06;;;;;;;63.50;43.22;;;;;;;;;;4829271;29;88624;-78
2022/02/05 15:44:35;;;;;;;54.28;43.38;;;;;;;;;;4829935;29;89309;-78
2022/02/05 15:47:03;;;;;;;67.93;50.78;;;;;;;;;;4828763;29;89250;-78
2022/02/05 15:49:30;;;;;;;60.38;45.95;;;;;;;;;;4828550;29;86925;-79
2022/02/05 15:51:59;;;;;;;64.72;50.80;;;;;;;;;;4830344;29;86430;-78
2022/02/05 15:54:30;;;;;;;72.88;54.47;;;;;;;;;;4843408;29;88181;-78
2022/02/05 15:59:44;;;;;;;61.67;42.25;;;;;;;;;;4828515;29;87863;-78
2022/02/05 16:02:11;;;;;;;53.67;40.50;;;;;;;;;;4829010;29;86947;-78
2022/02/05 16:04:38;;;;;;;52.22;40.60;;;;;;;;;;4829582;29;87719;-78
2022/02/05 16:07:05;;;;;;;58.97;43.83;;;;;;;;;;4828513;29;89099;-78
2022/02/05 16:09:32;;;;;;;65.53;47.08;;;;;;;;;;4843831;29;87323;-78
2022/02/05 16:12:07;;;;;;;78.25;57.13;;;;;;;;;;4829941;29;86817;-78
2022/02/05 16:14:34;;;;;;;77.35;53.63;;;;;;;;;;4843591;29;88258;-78
2022/02/05 16:17:03;;;;;;;65.75;48.08;;;;;;;;;;4843650;29;88215;-78
2022/02/05 16:19:31;;;;;;;72.93;50.45;;;;;;;;;;4829733;29;86864;-79
2022/02/05 16:21:58;;;;;;;69.30;46.45;;;;;;;;;;4829320;29;86961;-78
2022/02/05 16:24:25;;;;;;;64.00;47.63;;;;;;;;;;4827626;29;90186;-78
2022/02/05 16:26:53;;;;;;;76.30;57.42;;;;;;;;;;4827934;29;89525;-78
2022/02/05 16:29:26;;;;;;;77.93;55.13;;;;;;;;;;4828819;29;87071;-78
2022/02/05 16:31:58;;;;;;;72.65;52.97;;;;;;;;;;4842769;29;87049;-78
2022/02/05 16:34:28;;;;;;;71.88;50.45;;;;;;;;;;4828377;29;88103;-78
2022/02/05 16:36:55;;;;;;;65.85;47.95;;;;;;;;;;4829468;29;87435;-79
2022/02/05 16:39:26;;;;;;;62.65;49.75;;;;;;;;;;4829336;29;86818;-78
2022/02/05 16:41:54;;;;;;;61.80;45.55;;;;;;;;;;4828939;29;86249;-78
2022/02/05 16:44:22;;;;;;;58.97;41.05;;;;;;;;;;4827757;29;88114;-78
2022/02/05 16:46:52;;;;;;;59.42;48.00;;;;;;;;;;4829126;29;89470;-78
2022/02/05 16:49:23;;;;;;;63.63;45.75;;;;;;;;;;4828279;29;87739;-78
2022/02/05 16:51:51;;;;;;;55.58;39.38;;;;;;;;;;4813367;29;86883;-78
2022/02/05 16:54:20;;;;;;;60.20;45.80;;;;;;;;;;4828537;29;90031;-78
2022/02/05 16:56:47;;;;;;;56.35;40.53;;;;;;;;;;4827908;29;89312;-78
2022/02/05 16:59:14;;;;;;;65.60;46.53;;;;;;;;;;4827672;29;87432;-78
2022/02/05 17:01:42;;;;;;;61.55;45.92;;;;;;;;;;4828125;29;86934;-78
2022/02/05 17:04:10;;;;;;;65.50;46.80;;;;;;;;;;4843078;29;86857;-78
2022/02/05 17:06:38;;;;;;;62.55;44.58;;;;;;;;;;4829025;29;88797;-78
2022/02/05 17:09:06;;;;;;;59.15;43.58;;;;;;;;;;4843084;29;86989;-78
2022/02/05 17:11:35;;;;;;;53.25;42.75;;;;;;;;;;4826500;29;86946;-78
2022/02/05 17:14:02;;;;;;;56.95;42.50;;;;;;;;;;4818072;29;90518;-77
2022/02/05 17:16:31;;;;;;;57.05;43.47;;;;;;;;;;4840948;29;88522;-77
2022/02/05 17:18:59;;;;;;;59.05;44.40;;;;;;;;;;4846015;29;86986;-78
2022/02/05 17:21:26;;;;;;;67.18;46.42;;;;;;;;;;4816080;29;87059;-82
2022/02/05 17:23:54;;;;;;;62.92;47.92;;;;;;;;;;4840731;29;89376;-77
2022/02/05 17:26:26;;;;;;;66.03;49.20;;;;;;;;;;4841113;29;90716;-78
2022/02/05 17:28:53;;;;;;;66.97;50.28;;;;;;;;;;4837987;29;87035;-79
2022/02/05 17:31:20;;;;;;;64.55;50.88;;;;;;;;;;4843319;29;86407;-77
2022/02/05 17:33:49;;;;;;;64.57;49.00;;;;;;;;;;4842740;29;88346;-77
2022/02/05 17:36:18;;;;;;;71.82;49.55;;;;;;;;;;4828594;29;87939;-77
2022/02/05 17:38:46;;;;;;;70.45;52.38;;;;;;;;;;4826541;29;87855;-77
2022/02/05 17:41:14;;;;;;;73.30;55.17;;;;;;;;;;4832700;29;86975;-76
2022/02/05 17:43:46;;;;;;;84.80;59.25;;;;;;;;;;4838653;29;89777;-79
2022/02/05 17:46:15;;;;;;;85.97;64.07;;;;;;;;;;4849164;29;88069;-77
2022/02/05 17:48:42;;;;;;;93.10;67.95;;;;;;;;;;4832906;29;86797;-77
2022/02/05 17:51:09;;;;;;;97.75;70.25;;;;;;;;;;4833370;29;86863;-77
2022/02/05 17:53:36;;;;;;;108.15;76.05;;;;;;;;;;4848846;29;89045;-77
2022/02/05 17:56:07;;;;;;;100.13;75.35;;;;;;;;;;4849189;29;87679;-77
2022/02/05 17:58:38;;;;;;;102.57;72.85;;;;;;;;;;4848562;29;86965;-77
2022/02/05 18:01:08;;;;;;;96.35;69.50;;;;;;;;;;4834041;29;86964;-78
2022/02/05 18:03:40;;;;;;;95.75;69.88;;;;;;;;;;4832784;29;91287;-77
2022/02/05 18:06:15;;;;;;;94.22;69.28;;;;;;;;;;4832879;29;90739;-78
2022/02/05 18:09:30;;;;;;;94.10;72.80;;;;;;;;;;4833433;29;86866;-77
2022/02/05 18:11:35;;;;;;;103.47;67.82;;;;;;;;;;4825632;29;87121;-78
2022/02/05 18:16:35;;;;;;;101.88;73.30;;;;;;;;;;4847610;29;88979;-77
2022/02/05 18:19:03;;;;;;;96.22;67.35;;;;;;;;;;4833156;29;86959;-75